createdAt,value
2019-05-18T00:01:37.488Z,81.39
2019-05-18T00:05:00.696Z,80.71
2019-05-18T00:08:23.899Z,81.13
2019-05-18T00:11:47.030Z,81.35
2019-05-18T00:15:12.073Z,81.77
2019-05-18T00:18:35.267Z,81.77
2019-05-18T00:21:58.434Z,81.74
2019-05-18T00:25:21.830Z,81.69
2019-05-18T00:28:45.438Z,81.65
2019-05-18T00:32:08.755Z,82.27
2019-05-18T00:35:32.395Z,81.14
2019-05-18T00:38:55.578Z,81.30
2019-05-18T00:42:18.699Z,81.71
2019-05-18T00:45:41.898Z,81.90
2019-05-18T00:49:05.271Z,80.80
2019-05-18T00:52:28.512Z,82.01
2019-05-18T00:55:51.921Z,81.50
2019-05-18T00:59:16.131Z,80.94
2019-05-18T01:02:39.686Z,80.77
2019-05-18T01:06:03.086Z,81.22
2019-05-18T01:09:26.208Z,81.27
2019-05-18T01:12:49.725Z,80.78
2019-05-18T01:16:12.862Z,80.74
2019-05-18T01:19:36.732Z,80.97
2019-05-18T01:23:00.206Z,81.37
2019-05-18T01:26:23.419Z,81.70
2019-05-18T01:29:47.792Z,81.32
2019-05-18T01:33:10.889Z,81.37
2019-05-18T01:36:34.051Z,81.48
2019-05-18T01:39:57.288Z,81.53
2019-05-18T01:43:20.507Z,80.82
2019-05-18T01:46:43.593Z,80.68
2019-05-18T01:50:07.557Z,81.08
2019-05-18T01:53:30.621Z,81.29
2019-05-18T01:56:53.996Z,81.38
2019-05-18T02:00:18.640Z,82.01
2019-05-18T02:03:41.881Z,81.69
2019-05-18T02:07:05.006Z,82.01
2019-05-18T02:10:28.434Z,81.79
2019-05-18T02:13:51.554Z,81.97
2019-05-18T02:17:14.691Z,82.14
2019-05-18T02:20:39.557Z,82.32
2019-05-18T02:24:02.760Z,82.45
2019-05-18T02:27:26.106Z,82.48
2019-05-18T02:30:49.211Z,82.78
2019-05-18T02:34:12.258Z,82.93
2019-05-18T02:37:35.397Z,82.75
2019-05-18T02:40:58.591Z,82.61
2019-05-18T02:44:21.822Z,82.63
2019-05-18T02:47:44.921Z,83.05
2019-05-18T02:51:11.384Z,82.70
2019-05-18T02:54:33.213Z,82.57
2019-05-18T02:57:56.321Z,82.71
2019-05-18T03:01:19.495Z,83.03
2019-05-18T03:04:42.774Z,82.76
2019-05-18T03:08:06.031Z,82.43
2019-05-18T03:11:29.233Z,83.19
2019-05-18T03:14:52.330Z,82.10
2019-05-18T03:18:15.763Z,81.96
2019-05-18T03:21:38.999Z,82.45
2019-05-18T03:25:02.191Z,82.34
2019-05-18T03:28:25.369Z,82.49
2019-05-18T03:31:48.745Z,82.53
2019-05-18T03:35:11.984Z,83.13
2019-05-18T03:38:35.067Z,82.03
2019-05-18T03:41:58.305Z,82.86
2019-05-18T03:45:21.566Z,82.37
2019-05-18T03:48:45.963Z,82.21
2019-05-18T03:52:09.033Z,82.13
2019-05-18T03:55:32.329Z,82.37
2019-05-18T03:58:55.597Z,82.18
2019-05-18T04:02:18.915Z,82.46
2019-05-18T04:05:42.443Z,82.32
2019-05-18T04:09:06.092Z,82.33
2019-05-18T04:12:29.338Z,82.36
2019-05-18T04:15:52.819Z,81.84
2019-05-18T04:19:15.913Z,82.05
2019-05-18T04:22:39.356Z,81.94
2019-05-18T04:26:02.609Z,81.75
2019-05-18T04:29:45.331Z,81.48
2019-05-18T04:33:21.312Z,81.75
2019-05-18T04:37:03.829Z,81.28
2019-05-18T04:40:39.695Z,81.41
2019-05-18T04:44:22.328Z,81.44
2019-05-18T04:47:57.831Z,81.36
2019-05-18T04:51:40.457Z,81.55
2019-05-18T04:55:16.228Z,81.71
2019-05-18T04:58:58.777Z,81.04
2019-05-18T05:02:36.252Z,81.33
2019-05-18T05:06:18.834Z,81.12
2019-05-18T05:09:54.142Z,81.18
2019-05-18T05:13:36.669Z,80.99
2019-05-18T05:17:12.053Z,81.03
2019-05-18T05:20:54.603Z,80.93
2019-05-18T05:24:29.884Z,81.14
2019-05-18T05:28:05.468Z,81.04
2019-05-18T05:31:40.895Z,80.95
2019-05-18T05:35:24.498Z,80.98
2019-05-18T05:39:00.011Z,80.82
2019-05-18T05:42:42.619Z,80.70
2019-05-18T05:46:18.220Z,80.98
2019-05-18T05:49:53.747Z,81.01
2019-05-18T05:53:36.276Z,80.98
2019-05-18T05:57:11.584Z,81.04
2019-05-18T06:01:15.014Z,81.03
2019-05-18T06:04:51.094Z,80.41
2019-05-18T06:08:33.665Z,80.34
2019-05-18T06:12:09.883Z,80.58
2019-05-18T06:15:52.421Z,80.37
2019-05-18T06:19:27.631Z,78.77
2019-05-18T06:23:03.406Z,78.71
2019-05-18T06:26:40.909Z,77.78
2019-05-18T06:30:15.970Z,77.67
2019-05-18T06:33:51.280Z,77.36
2019-05-18T06:37:33.918Z,78.15
2019-05-18T06:41:10.801Z,78.99
2019-05-18T06:52:43.148Z,79.32
2019-05-18T06:56:19.013Z,79.58
2019-05-18T07:00:22.799Z,80.34
2019-05-18T07:03:58.328Z,80.20
2019-05-18T07:11:27.558Z,79.46
2019-05-18T07:15:02.879Z,79.01
2019-05-18T07:31:04.821Z,77.35
2019-05-18T07:34:40.823Z,76.42
2019-05-18T07:42:10.157Z,74.54
2019-05-18T07:45:45.282Z,72.72
2019-05-18T07:49:27.802Z,72.22
2019-05-18T07:53:03.742Z,72.39
2019-05-18T07:56:39.090Z,70.45
2019-05-18T08:00:14.501Z,69.56
2019-05-18T08:03:57.253Z,69.63
2019-05-18T08:07:32.961Z,68.02
2019-05-18T08:11:15.472Z,68.02
2019-05-18T08:14:51.520Z,67.85
2019-05-18T08:18:26.751Z,65.72
2019-05-18T08:22:09.288Z,66.39
2019-05-18T08:25:45.481Z,67.53
2019-05-18T08:29:20.704Z,65.92
2019-05-18T08:33:15.696Z,63.51
2019-05-18T08:36:58.365Z,63.88
2019-05-18T08:40:33.974Z,63.72
2019-05-18T08:44:16.511Z,63.29
2019-05-18T08:47:52.121Z,66.53
2019-05-18T08:51:34.638Z,64.48
2019-05-18T08:55:10.468Z,61.69
2019-05-18T08:58:53.107Z,62.21
2019-05-18T09:02:28.423Z,59.64
2019-05-18T09:10:31.655Z,55.77
2019-05-18T09:14:07.045Z,54.57
2019-05-18T09:17:49.581Z,52.06
2019-05-18T09:21:24.976Z,54.10
2019-05-18T09:25:00.299Z,52.87
2019-05-18T09:28:43.310Z,53.76
2019-05-18T09:32:20.896Z,52.63
2019-05-18T09:36:03.659Z,53.73
2019-05-18T09:39:38.887Z,54.42
2019-05-18T09:43:21.703Z,53.49
2019-05-18T09:46:57.206Z,51.63
2019-05-18T09:50:39.847Z,51.42
2019-05-18T09:54:15.043Z,51.64
2019-05-18T09:57:57.642Z,52.00
2019-05-18T10:01:32.929Z,48.56
2019-05-18T10:05:27.653Z,47.51
2019-05-18T10:09:22.290Z,47.19
2019-05-18T10:13:04.841Z,49.08
2019-05-18T10:16:40.209Z,49.20
2019-05-18T10:20:15.458Z,47.21
2019-05-18T10:23:50.850Z,45.38
2019-05-18T10:27:33.407Z,47.25
2019-05-18T10:31:09.330Z,46.84
2019-05-18T10:34:51.855Z,43.71
2019-05-18T10:38:27.501Z,43.35
2019-05-18T10:42:10.025Z,42.72
2019-05-18T10:45:45.970Z,40.13
2019-05-18T10:49:21.503Z,42.64
2019-05-18T10:53:04.074Z,38.67
2019-05-18T10:56:39.627Z,37.82
2019-05-18T11:04:17.937Z,33.55
2019-05-18T11:08:00.535Z,38.94
2019-05-18T11:11:35.727Z,37.00
2019-05-18T11:15:11.472Z,35.34
2019-05-18T11:18:46.786Z,32.06
2019-05-18T11:22:29.311Z,34.32
2019-05-18T11:26:05.300Z,35.73
2019-05-18T11:34:10.197Z,37.42
2019-05-18T11:38:12.658Z,35.14
2019-05-18T11:41:50.595Z,34.17
2019-05-18T11:45:33.251Z,35.51
2019-05-18T11:49:09.182Z,35.35
2019-05-18T11:52:52.183Z,35.16
2019-05-18T11:56:27.476Z,34.89
2019-05-18T12:00:31.418Z,35.04
2019-05-18T12:04:06.887Z,36.24
2019-05-18T12:07:49.445Z,35.86
2019-05-18T12:11:25.604Z,32.92
2019-05-18T12:15:20.703Z,35.83
2019-05-18T12:18:57.674Z,34.08
2019-05-18T12:27:03.595Z,32.06
2019-05-18T12:30:46.242Z,33.94
2019-05-18T12:34:09.810Z,31.56
2019-05-18T12:38:19.653Z,35.41
2019-05-18T12:41:43.386Z,32.10
2019-05-18T12:45:08.853Z,34.02
2019-05-18T12:48:32.463Z,33.14
2019-05-18T12:51:55.932Z,31.16
2019-05-18T12:55:19.978Z,29.04
2019-05-18T12:58:43.544Z,27.39
2019-05-18T13:02:07.029Z,27.42
2019-05-18T13:05:30.624Z,27.53
2019-05-18T13:08:54.654Z,27.65
2019-05-18T13:12:18.217Z,28.07
2019-05-18T13:15:41.653Z,22.94
2019-05-18T13:19:05.079Z,22.28
2019-05-18T13:22:28.480Z,21.11
2019-05-18T13:25:51.739Z,20.46
2019-05-18T13:29:15.201Z,20.32
2019-05-18T13:32:38.496Z,20.85
2019-05-18T13:36:01.803Z,20.54
2019-05-18T13:39:25.040Z,20.30
2019-05-18T13:42:48.418Z,22.71
2019-05-18T13:46:13.296Z,23.71
2019-05-18T13:49:37.294Z,21.43
2019-05-18T13:53:00.935Z,21.79
2019-05-18T13:56:24.430Z,22.47
2019-05-18T13:59:47.830Z,20.42
2019-05-18T14:03:11.347Z,19.66
2019-05-18T14:06:35.163Z,19.97
2019-05-18T14:09:59.856Z,20.61
2019-05-18T14:13:23.582Z,17.88
2019-05-18T14:16:46.834Z,19.43
2019-05-18T14:20:11.607Z,19.37
2019-05-18T14:23:34.951Z,19.52
2019-05-18T14:26:58.560Z,16.46
2019-05-18T14:30:22.518Z,20.37
2019-05-18T14:33:46.397Z,22.53
2019-05-18T14:37:11.375Z,24.25
2019-05-18T14:40:35.624Z,27.20
2019-05-18T14:43:59.373Z,24.39
2019-05-18T14:47:27.329Z,24.39
2019-05-18T14:50:50.368Z,24.13
2019-05-18T14:54:14.203Z,25.24
2019-05-18T14:57:38.636Z,25.38
2019-05-18T15:01:02.521Z,27.43
2019-05-18T15:04:26.034Z,23.73
2019-05-18T15:07:49.870Z,22.39
2019-05-18T15:11:16.400Z,22.76
2019-05-18T15:14:40.321Z,23.53
2019-05-18T15:18:04.027Z,24.11
2019-05-18T15:21:27.672Z,22.32
2019-05-18T15:24:51.030Z,25.15
2019-05-18T15:28:14.621Z,20.83
2019-05-18T15:31:38.088Z,21.59
2019-05-18T15:35:01.680Z,23.66
2019-05-18T15:38:26.256Z,21.10
2019-05-18T15:41:49.645Z,21.67
2019-05-18T15:45:13.195Z,22.55
2019-05-18T15:48:36.598Z,21.95
2019-05-18T15:52:00.106Z,22.13
2019-05-18T15:55:23.408Z,22.02
2019-05-18T15:58:47.086Z,22.74
2019-05-18T16:02:10.460Z,23.56
2019-05-18T16:05:34.122Z,24.74
2019-05-18T16:08:57.861Z,25.68
2019-05-18T16:12:21.646Z,31.39
2019-05-18T16:15:45.566Z,32.33
2019-05-18T16:19:08.702Z,34.81
2019-05-18T16:22:31.755Z,36.22
2019-05-18T16:25:55.144Z,44.45
2019-05-18T16:29:18.738Z,50.12
2019-05-18T16:32:41.934Z,54.90
2019-05-18T16:36:05.757Z,60.77
2019-05-18T16:39:29.545Z,63.66
2019-05-18T16:42:52.915Z,66.01
2019-05-18T16:46:16.441Z,69.52
2019-05-18T16:49:39.893Z,71.58
2019-05-18T16:53:03.476Z,73.95
2019-05-18T16:56:34.861Z,72.72
2019-05-18T16:59:52.495Z,73.80
2019-05-18T17:03:15.850Z,74.03
2019-05-18T17:06:39.520Z,73.41
2019-05-18T17:10:03.356Z,74.56
2019-05-18T17:13:27.394Z,74.62
2019-05-18T17:16:50.492Z,75.33
2019-05-18T17:20:14.279Z,75.58
2019-05-18T17:23:38.155Z,74.52
2019-05-18T17:27:01.863Z,74.50
2019-05-18T17:30:25.826Z,76.17
2019-05-18T17:33:49.141Z,76.71
2019-05-18T17:37:12.999Z,75.58
2019-05-18T17:40:36.584Z,76.16
2019-05-18T17:44:00.158Z,75.04
2019-05-18T17:47:23.678Z,75.47
2019-05-18T17:50:47.149Z,76.32
2019-05-18T17:54:10.810Z,75.80
2019-05-18T17:57:34.576Z,75.73
2019-05-18T18:00:58.526Z,75.53
2019-05-18T18:04:22.017Z,74.87
2019-05-18T18:07:45.453Z,76.08
2019-05-18T18:11:11.805Z,76.26
2019-05-18T18:14:34.319Z,75.55
2019-05-18T18:17:57.551Z,75.79
2019-05-18T18:21:21.292Z,76.39
2019-05-18T18:24:45.167Z,76.12
2019-05-18T18:28:08.857Z,77.09
2019-05-18T18:31:33.531Z,76.15
2019-05-18T18:34:56.634Z,76.61
2019-05-18T18:38:20.141Z,77.15
2019-05-18T18:41:43.370Z,76.26
2019-05-18T18:45:07.133Z,76.74
2019-05-18T18:48:30.722Z,76.33
2019-05-18T18:51:54.491Z,76.98
2019-05-18T18:55:18.628Z,76.79
2019-05-18T18:58:42.133Z,76.37
2019-05-18T19:02:06.704Z,76.44
2019-05-18T19:05:30.472Z,77.09
2019-05-18T19:08:53.919Z,75.67
2019-05-18T19:12:17.365Z,76.49
2019-05-18T19:15:41.076Z,76.33
2019-05-18T19:19:04.541Z,75.35
2019-05-18T19:22:28.051Z,73.70
2019-05-18T19:25:51.787Z,73.53
2019-05-18T19:29:15.381Z,75.59
2019-05-18T19:32:38.659Z,74.78
2019-05-18T19:36:01.838Z,74.61
2019-05-18T19:39:25.736Z,75.61
2019-05-18T19:42:49.109Z,76.05
2019-05-18T19:46:12.259Z,76.00
2019-05-18T19:49:35.496Z,74.85
2019-05-18T19:53:00.207Z,75.16
2019-05-18T19:56:27.486Z,75.50
2019-05-18T19:59:51.208Z,76.00
2019-05-18T20:03:16.235Z,75.47
2019-05-18T20:06:41.735Z,75.06
2019-05-18T20:10:06.850Z,75.48
2019-05-18T20:13:32.823Z,76.06
2019-05-18T20:16:56.275Z,76.38
2019-05-18T20:20:22.730Z,76.13
2019-05-18T20:23:46.729Z,76.33
2019-05-18T20:27:10.050Z,76.37
2019-05-18T20:30:33.611Z,75.78
2019-05-18T20:33:59.482Z,76.04
2019-05-18T20:37:22.964Z,75.60
2019-05-18T20:40:46.613Z,75.82
2019-05-18T20:44:10.693Z,75.96
2019-05-18T20:47:34.789Z,76.13
2019-05-18T20:51:01.279Z,77.34
2019-05-18T20:54:25.677Z,76.61
2019-05-18T20:57:51.296Z,76.59
2019-05-18T21:01:14.713Z,75.76
2019-05-18T21:04:39.265Z,76.31
2019-05-18T21:08:03.866Z,76.77
2019-05-18T21:11:27.522Z,77.36
2019-05-18T21:14:54.077Z,76.65
2019-05-18T21:18:20.309Z,75.41
2019-05-18T21:21:44.422Z,75.96
2019-05-18T21:25:11.030Z,75.12
2019-05-18T21:28:34.996Z,74.87
2019-05-18T21:31:58.735Z,75.76
2019-05-18T21:35:23.447Z,75.68
2019-05-18T21:38:47.679Z,76.42
2019-05-18T21:42:12.314Z,76.87
2019-05-18T21:45:39.496Z,76.55
2019-05-18T21:49:03.145Z,76.39
2019-05-18T21:52:26.558Z,76.40
2019-05-18T21:55:50.672Z,77.83
2019-05-18T21:59:14.270Z,76.79
2019-05-18T22:02:37.579Z,77.13
2019-05-18T22:06:01.585Z,78.71
2019-05-18T22:09:27.821Z,80.61
2019-05-18T22:12:51.488Z,81.80
2019-05-18T22:16:14.854Z,80.92
2019-05-18T22:19:38.790Z,81.43
2019-05-18T22:23:02.243Z,82.28
2019-05-18T22:26:27.140Z,81.65
2019-05-18T22:29:50.460Z,81.68
2019-05-18T22:33:13.891Z,81.48
2019-05-18T22:36:37.263Z,81.69
2019-05-18T22:40:00.580Z,81.03
2019-05-18T22:43:25.027Z,81.27
2019-05-18T22:46:48.513Z,82.17
2019-05-18T22:50:11.982Z,82.66
2019-05-18T22:53:35.590Z,84.48
2019-05-18T22:56:58.988Z,83.98
2019-05-18T23:00:22.416Z,83.66
2019-05-18T23:03:47.027Z,85.19
2019-05-18T23:07:13.397Z,85.08
2019-05-18T23:10:36.531Z,83.57
2019-05-18T23:13:59.615Z,84.10
2019-05-18T23:17:22.811Z,83.81
2019-05-18T23:20:46.116Z,83.36
2019-05-18T23:24:09.304Z,85.60
2019-05-18T23:27:32.400Z,85.57
2019-05-18T23:30:55.776Z,84.45
2019-05-18T23:34:19.119Z,84.56
2019-05-18T23:37:42.608Z,84.85
2019-05-18T23:41:06.401Z,84.22
2019-05-18T23:44:29.709Z,84.93
2019-05-18T23:47:52.882Z,83.84
2019-05-18T23:51:17.171Z,83.58
2019-05-18T23:54:40.517Z,83.98
2019-05-18T23:58:05.731Z,84.13
